sensor_id;sensor_type;location;lat;lon;timestamp;temperature;humidity
25811;DHT22;13645;52.460;13.910;2022-12-10T00:01:35;-0.80;99.90
25811;DHT22;13645;52.460;13.910;2022-12-10T00:04:03;-0.80;99.90
25811;DHT22;13645;52.460;13.910;2022-12-10T00:06:33;-0.80;99.90
25811;DHT22;13645;52.460;13.910;2022-12-10T00:09:01;-0.80;99.90
25811;DHT22;13645;52.460;13.910;2022-12-10T00:11:28;-0.80;99.90
25811;DHT22;13645;52.460;13.910;2022-12-10T00:13:56;-0.80;99.90
25811;DHT22;13645;52.460;13.910;2022-12-10T00:16:24;-0.80;99.90
25811;DHT22;13645;52.460;13.910;2022-12-10T00:18:52;-0.80;99.90
25811;DHT22;13645;52.460;13.910;2022-12-10T00:21:28;-0.80;99.90
25811;DHT22;13645;52.460;13.910;2022-12-10T00:23:56;-0.80;99.90
25811;DHT22;13645;52.460;13.910;2022-12-10T00:26:32;-0.80;99.90
25811;DHT22;13645;52.460;13.910;2022-12-10T00:29:02;-0.80;99.90
25811;DHT22;13645;52.460;13.910;2022-12-10T00:31:32;-0.80;99.90
25811;DHT22;13645;52.460;13.910;2022-12-10T00:34:03;-0.80;99.90
25811;DHT22;13645;52.460;13.910;2022-12-10T00:36:36;-0.80;99.90
25811;DHT22;13645;52.460;13.910;2022-12-10T00:39:03;-0.80;99.90
25811;DHT22;13645;52.460;13.910;2022-12-10T00:41:31;-0.90;99.90
25811;DHT22;13645;52.460;13.910;2022-12-10T00:43:58;-0.80;99.90
25811;DHT22;13645;52.460;13.910;2022-12-10T00:46:24;-0.80;99.90
25811;DHT22;13645;52.460;13.910;2022-12-10T00:48:51;-0.80;99.90
25811;DHT22;13645;52.460;13.910;2022-12-10T00:51:23;-0.80;99.90
25811;DHT22;13645;52.460;13.910;2022-12-10T00:53:51;-0.80;99.90
25811;DHT22;13645;52.460;13.910;2022-12-10T00:56:22;-0.80;99.90
25811;DHT22;13645;52.460;13.910;2022-12-10T00:58:49;-0.80;99.90
25811;DHT22;13645;52.460;13.910;2022-12-10T01:03:50;-0.90;99.90
25811;DHT22;13645;52.460;13.910;2022-12-10T01:06:22;-0.80;99.90
25811;DHT22;13645;52.460;13.910;2022-12-10T01:08:51;-0.80;99.90
25811;DHT22;13645;52.460;13.910;2022-12-10T01:11:19;-0.80;99.90
25811;DHT22;13645;52.460;13.910;2022-12-10T01:13:48;-0.80;99.90
25811;DHT22;13645;52.460;13.910;2022-12-10T01:16:17;-0.80;99.90
25811;DHT22;13645;52.460;13.910;2022-12-10T01:18:44;-0.80;99.90
25811;DHT22;13645;52.460;13.910;2022-12-10T01:21:15;-0.80;99.90
25811;DHT22;13645;52.460;13.910;2022-12-10T01:23:44;-0.90;99.90
25811;DHT22;13645;52.460;13.910;2022-12-10T01:26:13;-0.90;99.90
25811;DHT22;13645;52.460;13.910;2022-12-10T01:28:41;-0.90;99.90
25811;DHT22;13645;52.460;13.910;2022-12-10T01:31:16;-0.80;99.90
25811;DHT22;13645;52.460;13.910;2022-12-10T01:33:44;-0.80;99.90
25811;DHT22;13645;52.460;13.910;2022-12-10T01:36:17;-0.80;99.90
25811;DHT22;13645;52.460;13.910;2022-12-10T01:38:44;-0.80;99.90
25811;DHT22;13645;52.460;13.910;2022-12-10T01:41:20;-0.80;99.90
25811;DHT22;13645;52.460;13.910;2022-12-10T01:43:53;-0.80;99.90
25811;DHT22;13645;52.460;13.910;2022-12-10T01:46:21;-0.80;99.90
25811;DHT22;13645;52.460;13.910;2022-12-10T01:48:50;-0.70;99.90
25811;DHT22;13645;52.460;13.910;2022-12-10T01:51:17;-0.80;99.90
25811;DHT22;13645;52.460;13.910;2022-12-10T01:53:44;-0.70;99.90
25811;DHT22;13645;52.460;13.910;2022-12-10T01:56:12;-0.70;99.90
25811;DHT22;13645;52.460;13.910;2022-12-10T01:58:39;-0.80;99.90
25811;DHT22;13645;52.460;13.910;2022-12-10T02:01:16;-0.80;99.90
25811;DHT22;13645;52.460;13.910;2022-12-10T02:04:26;-0.80;99.90
25811;DHT22;13645;52.460;13.910;2022-12-10T02:14:48;-0.80;99.90
25811;DHT22;13645;52.460;13.910;2022-12-10T02:20:49;-0.90;99.90
25811;DHT22;13645;52.460;13.910;2022-12-10T02:23:26;-0.90;99.90
25811;DHT22;13645;52.460;13.910;2022-12-10T02:26:02;-0.90;99.90
25811;DHT22;13645;52.460;13.910;2022-12-10T02:28:45;-0.90;99.90
25811;DHT22;13645;52.460;13.910;2022-12-10T02:31:17;-0.80;99.90
25811;DHT22;13645;52.460;13.910;2022-12-10T02:33:48;-0.80;99.90
25811;DHT22;13645;52.460;13.910;2022-12-10T02:36:17;-0.80;99.90
25811;DHT22;13645;52.460;13.910;2022-12-10T02:38:46;-0.80;99.90
25811;DHT22;13645;52.460;13.910;2022-12-10T02:41:18;-0.80;99.90
25811;DHT22;13645;52.460;13.910;2022-12-10T02:43:48;-0.80;99.90
25811;DHT22;13645;52.460;13.910;2022-12-10T02:46:17;-0.80;99.90
25811;DHT22;13645;52.460;13.910;2022-12-10T02:48:46;-0.70;99.90
25811;DHT22;13645;52.460;13.910;2022-12-10T02:51:14;-0.80;99.90
25811;DHT22;13645;52.460;13.910;2022-12-10T02:53:42;-0.70;99.90
25811;DHT22;13645;52.460;13.910;2022-12-10T02:56:30;-0.70;99.90
25811;DHT22;13645;52.460;13.910;2022-12-10T02:59:24;-0.80;99.90
25811;DHT22;13645;52.460;13.910;2022-12-10T03:02:06;-0.80;99.90
25811;DHT22;13645;52.460;13.910;2022-12-10T03:04:53;-0.80;99.90
25811;DHT22;13645;52.460;13.910;2022-12-10T03:07:34;-0.80;99.90
25811;DHT22;13645;52.460;13.910;2022-12-10T03:10:08;-0.80;99.90
25811;DHT22;13645;52.460;13.910;2022-12-10T03:12:45;-0.70;99.90
25811;DHT22;13645;52.460;13.910;2022-12-10T03:15:14;-0.80;99.90
25811;DHT22;13645;52.460;13.910;2022-12-10T03:17:43;-0.80;99.90
25811;DHT22;13645;52.460;13.910;2022-12-10T03:20:13;-0.70;99.90
25811;DHT22;13645;52.460;13.910;2022-12-10T03:22:43;-0.70;99.90
25811;DHT22;13645;52.460;13.910;2022-12-10T03:25:12;-0.70;99.90
25811;DHT22;13645;52.460;13.910;2022-12-10T03:27:41;-0.70;99.90
25811;DHT22;13645;52.460;13.910;2022-12-10T03:30:08;-0.70;99.90
25811;DHT22;13645;52.460;13.910;2022-12-10T03:32:35;-0.70;99.90
25811;DHT22;13645;52.460;13.910;2022-12-10T03:35:04;-0.70;99.90
25811;DHT22;13645;52.460;13.910;2022-12-10T03:37:33;-0.80;99.90
25811;DHT22;13645;52.460;13.910;2022-12-10T03:40:01;-0.80;99.90
25811;DHT22;13645;52.460;13.910;2022-12-10T03:42:29;-0.80;99.90
25811;DHT22;13645;52.460;13.910;2022-12-10T03:44:56;-0.70;99.90
25811;DHT22;13645;52.460;13.910;2022-12-10T03:47:23;-0.70;99.90
25811;DHT22;13645;52.460;13.910;2022-12-10T03:49:50;-0.70;99.90
25811;DHT22;13645;52.460;13.910;2022-12-10T03:52:16;-0.70;99.90
25811;DHT22;13645;52.460;13.910;2022-12-10T03:54:43;-0.70;99.90
25811;DHT22;13645;52.460;13.910;2022-12-10T03:57:10;-0.70;99.90
25811;DHT22;13645;52.460;13.910;2022-12-10T03:59:37;-0.70;99.90
25811;DHT22;13645;52.460;13.910;2022-12-10T04:02:03;-0.70;99.90
25811;DHT22;13645;52.460;13.910;2022-12-10T04:04:30;-0.70;99.90
25811;DHT22;13645;52.460;13.910;2022-12-10T04:06:57;-0.70;99.90
25811;DHT22;13645;52.460;13.910;2022-12-10T04:09:24;-0.70;99.90
25811;DHT22;13645;52.460;13.910;2022-12-10T04:11:55;-0.70;99.90
25811;DHT22;13645;52.460;13.910;2022-12-10T04:14:22;-0.70;99.90
25811;DHT22;13645;52.460;13.910;2022-12-10T04:17:08;-0.70;99.90
25811;DHT22;13645;52.460;13.910;2022-12-10T04:19:35;-0.70;99.90
25811;DHT22;13645;52.460;13.910;2022-12-10T04:22:02;-0.60;99.90
25811;DHT22;13645;52.460;13.910;2022-12-10T04:24:47;-0.60;99.90
25811;DHT22;13645;52.460;13.910;2022-12-10T04:27:53;-0.60;99.90
25811;DHT22;13645;52.460;13.910;2022-12-10T04:30:19;-0.60;99.90
25811;DHT22;13645;52.460;13.910;2022-12-10T04:32:46;-0.60;99.90
25811;DHT22;13645;52.460;13.910;2022-12-10T04:35:13;-0.60;99.90
25811;DHT22;13645;52.460;13.910;2022-12-10T04:37:40;-0.60;99.90
25811;DHT22;13645;52.460;13.910;2022-12-10T04:40:07;-0.60;99.90
25811;DHT22;13645;52.460;13.910;2022-12-10T04:42:34;-0.60;99.90
25811;DHT22;13645;52.460;13.910;2022-12-10T04:45:01;-0.60;99.90
25811;DHT22;13645;52.460;13.910;2022-12-10T04:47:28;-0.60;99.90
25811;DHT22;13645;52.460;13.910;2022-12-10T04:49:55;-0.60;99.90
25811;DHT22;13645;52.460;13.910;2022-12-10T04:52:21;-0.60;99.90
25811;DHT22;13645;52.460;13.910;2022-12-10T04:54:48;-0.60;99.90
25811;DHT22;13645;52.460;13.910;2022-12-10T04:57:15;-0.60;99.90
25811;DHT22;13645;52.460;13.910;2022-12-10T04:59:41;-0.60;99.90
25811;DHT22;13645;52.460;13.910;2022-12-10T05:02:08;-0.60;99.90
25811;DHT22;13645;52.460;13.910;2022-12-10T05:04:35;-0.60;99.90
25811;DHT22;13645;52.460;13.910;2022-12-10T05:07:02;-0.60;99.90
25811;DHT22;13645;52.460;13.910;2022-12-10T05:09:29;-0.50;99.90
25811;DHT22;13645;52.460;13.910;2022-12-10T05:11:56;-0.60;99.90
25811;DHT22;13645;52.460;13.910;2022-12-10T05:14:23;-0.60;99.90
25811;DHT22;13645;52.460;13.910;2022-12-10T05:16:50;-0.60;99.90
25811;DHT22;13645;52.460;13.910;2022-12-10T05:19:18;-0.60;99.90
25811;DHT22;13645;52.460;13.910;2022-12-10T05:21:50;-0.50;99.90
25811;DHT22;13645;52.460;13.910;2022-12-10T05:24:35;-0.60;99.90
25811;DHT22;13645;52.460;13.910;2022-12-10T05:27:03;-0.60;99.90
25811;DHT22;13645;52.460;13.910;2022-12-10T05:29:29;-0.60;99.90
25811;DHT22;13645;52.460;13.910;2022-12-10T05:31:56;-0.50;99.90
25811;DHT22;13645;52.460;13.910;2022-12-10T05:34:23;-0.60;99.90
25811;DHT22;13645;52.460;13.910;2022-12-10T05:36:50;-0.60;99.90
25811;DHT22;13645;52.460;13.910;2022-12-10T05:39:16;-0.60;99.90
25811;DHT22;13645;52.460;13.910;2022-12-10T05:41:43;-0.50;99.90
25811;DHT22;13645;52.460;13.910;2022-12-10T05:44:11;-0.50;99.90
25811;DHT22;13645;52.460;13.910;2022-12-10T05:46:39;-0.50;99.90
25811;DHT22;13645;52.460;13.910;2022-12-10T05:49:06;-0.50;99.90
25811;DHT22;13645;52.460;13.910;2022-12-10T05:51:35;-0.40;99.90
25811;DHT22;13645;52.460;13.910;2022-12-10T05:54:05;-0.50;99.90
25811;DHT22;13645;52.460;13.910;2022-12-10T05:56:32;-0.50;99.90
25811;DHT22;13645;52.460;13.910;2022-12-10T05:59:00;-0.50;99.90
25811;DHT22;13645;52.460;13.910;2022-12-10T06:01:30;-0.50;99.90
25811;DHT22;13645;52.460;13.910;2022-12-10T06:03:59;-0.50;99.90
25811;DHT22;13645;52.460;13.910;2022-12-10T06:06:34;-0.50;99.90
25811;DHT22;13645;52.460;13.910;2022-12-10T06:09:02;-0.50;99.90
25811;DHT22;13645;52.460;13.910;2022-12-10T06:11:30;-0.50;99.90
25811;DHT22;13645;52.460;13.910;2022-12-10T06:13:57;-0.50;99.90
25811;DHT22;13645;52.460;13.910;2022-12-10T06:16:27;-0.50;99.90
25811;DHT22;13645;52.460;13.910;2022-12-10T06:18:54;-0.50;99.90
25811;DHT22;13645;52.460;13.910;2022-12-10T06:21:22;-0.50;99.90
25811;DHT22;13645;52.460;13.910;2022-12-10T06:23:50;-0.50;99.90
25811;DHT22;13645;52.460;13.910;2022-12-10T06:26:21;-0.50;99.90
25811;DHT22;13645;52.460;13.910;2022-12-10T06:28:48;-0.50;99.90
25811;DHT22;13645;52.460;13.910;2022-12-10T06:31:16;-0.50;99.90
25811;DHT22;13645;52.460;13.910;2022-12-10T06:33:43;-0.50;99.90
25811;DHT22;13645;52.460;13.910;2022-12-10T06:36:12;-0.50;99.90
25811;DHT22;13645;52.460;13.910;2022-12-10T06:38:39;-0.60;99.90
25811;DHT22;13645;52.460;13.910;2022-12-10T06:41:07;-0.50;99.90
25811;DHT22;13645;52.460;13.910;2022-12-10T06:43:35;-0.50;99.90
25811;DHT22;13645;52.460;13.910;2022-12-10T06:46:10;-0.50;99.90
25811;DHT22;13645;52.460;13.910;2022-12-10T06:48:37;-0.50;99.90
25811;DHT22;13645;52.460;13.910;2022-12-10T06:51:05;-0.50;99.90
25811;DHT22;13645;52.460;13.910;2022-12-10T06:53:33;-0.50;99.90
25811;DHT22;13645;52.460;13.910;2022-12-10T06:56:01;-0.60;99.90
25811;DHT22;13645;52.460;13.910;2022-12-10T06:58:30;-0.50;99.90
25811;DHT22;13645;52.460;13.910;2022-12-10T07:01:04;-0.50;99.90
25811;DHT22;13645;52.460;13.910;2022-12-10T07:03:32;-0.50;99.90
25811;DHT22;13645;52.460;13.910;2022-12-10T07:06:00;-0.50;99.90
25811;DHT22;13645;52.460;13.910;2022-12-10T07:08:27;-0.50;99.90
25811;DHT22;13645;52.460;13.910;2022-12-10T07:10:54;-0.60;99.90
25811;DHT22;13645;52.460;13.910;2022-12-10T07:13:22;-0.60;99.90
25811;DHT22;13645;52.460;13.910;2022-12-10T07:15:55;-0.60;99.90
25811;DHT22;13645;52.460;13.910;2022-12-10T07:18:22;-0.50;99.90
25811;DHT22;13645;52.460;13.910;2022-12-10T07:20:49;-0.50;99.90
25811;DHT22;13645;52.460;13.910;2022-12-10T07:23:16;-0.60;99.90
25811;DHT22;13645;52.460;13.910;2022-12-10T07:25:42;-0.60;99.90
25811;DHT22;13645;52.460;13.910;2022-12-10T07:28:09;-0.60;99.90
25811;DHT22;13645;52.460;13.910;2022-12-10T07:30:36;-0.60;99.90
25811;DHT22;13645;52.460;13.910;2022-12-10T07:33:03;-0.60;99.90
25811;DHT22;13645;52.460;13.910;2022-12-10T07:35:30;-0.60;99.90
25811;DHT22;13645;52.460;13.910;2022-12-10T07:37:57;-0.60;99.90
25811;DHT22;13645;52.460;13.910;2022-12-10T07:40:24;-0.60;99.90
25811;DHT22;13645;52.460;13.910;2022-12-10T07:42:50;-0.60;99.90
25811;DHT22;13645;52.460;13.910;2022-12-10T07:45:17;-0.60;99.90
25811;DHT22;13645;52.460;13.910;2022-12-10T07:47:44;-0.60;99.90
25811;DHT22;13645;52.460;13.910;2022-12-10T07:50:10;-0.50;99.90
25811;DHT22;13645;52.460;13.910;2022-12-10T07:52:37;-0.50;99.90
25811;DHT22;13645;52.460;13.910;2022-12-10T07:55:04;-0.50;99.90
25811;DHT22;13645;52.460;13.910;2022-12-10T07:57:31;-0.50;99.90
25811;DHT22;13645;52.460;13.910;2022-12-10T07:59:58;-0.50;99.90
25811;DHT22;13645;52.460;13.910;2022-12-10T08:02:25;-0.50;99.90
25811;DHT22;13645;52.460;13.910;2022-12-10T08:04:52;-0.40;99.90
25811;DHT22;13645;52.460;13.910;2022-12-10T08:07:18;-0.40;99.90
25811;DHT22;13645;52.460;13.910;2022-12-10T08:09:45;-0.40;99.90
25811;DHT22;13645;52.460;13.910;2022-12-10T08:12:12;-0.40;99.90
25811;DHT22;13645;52.460;13.910;2022-12-10T08:14:38;-0.40;99.90
25811;DHT22;13645;52.460;13.910;2022-12-10T08:17:05;-0.40;99.90
25811;DHT22;13645;52.460;13.910;2022-12-10T08:19:32;-0.40;99.90
25811;DHT22;13645;52.460;13.910;2022-12-10T08:21:59;-0.40;99.90
25811;DHT22;13645;52.460;13.910;2022-12-10T08:24:25;-0.30;99.90
25811;DHT22;13645;52.460;13.910;2022-12-10T08:26:52;-0.40;99.90
25811;DHT22;13645;52.460;13.910;2022-12-10T08:29:19;-0.30;99.90
25811;DHT22;13645;52.460;13.910;2022-12-10T08:31:45;-0.30;99.90
25811;DHT22;13645;52.460;13.910;2022-12-10T08:34:18;-0.30;99.90
25811;DHT22;13645;52.460;13.910;2022-12-10T08:36:45;-0.30;99.90
25811;DHT22;13645;52.460;13.910;2022-12-10T08:39:13;-0.30;99.90
25811;DHT22;13645;52.460;13.910;2022-12-10T08:41:46;-0.30;99.90
25811;DHT22;13645;52.460;13.910;2022-12-10T08:44:13;-0.30;99.90
25811;DHT22;13645;52.460;13.910;2022-12-10T08:46:40;-0.30;99.90
25811;DHT22;13645;52.460;13.910;2022-12-10T08:49:07;-0.30;99.90
25811;DHT22;13645;52.460;13.910;2022-12-10T08:51:34;-0.20;99.90
25811;DHT22;13645;52.460;13.910;2022-12-10T08:54:02;-0.20;99.90
25811;DHT22;13645;52.460;13.910;2022-12-10T08:56:29;-0.30;99.90
25811;DHT22;13645;52.460;13.910;2022-12-10T08:58:56;-0.20;99.90
25811;DHT22;13645;52.460;13.910;2022-12-10T09:01:23;-0.30;99.90
25811;DHT22;13645;52.460;13.910;2022-12-10T09:03:50;-0.30;99.90
25811;DHT22;13645;52.460;13.910;2022-12-10T09:06:20;-0.30;99.90
25811;DHT22;13645;52.460;13.910;2022-12-10T09:08:47;-0.20;99.90
25811;DHT22;13645;52.460;13.910;2022-12-10T09:11:20;-0.20;99.90
25811;DHT22;13645;52.460;13.910;2022-12-10T09:13:47;-0.20;99.90
25811;DHT22;13645;52.460;13.910;2022-12-10T09:16:15;-0.20;99.90
25811;DHT22;13645;52.460;13.910;2022-12-10T09:18:42;-0.20;99.90
25811;DHT22;13645;52.460;13.910;2022-12-10T09:21:11;-0.20;99.90
25811;DHT22;13645;52.460;13.910;2022-12-10T09:23:39;-0.20;99.90
25811;DHT22;13645;52.460;13.910;2022-12-10T09:26:10;-0.20;99.90
25811;DHT22;13645;52.460;13.910;2022-12-10T09:28:38;-0.20;99.90
25811;DHT22;13645;52.460;13.910;2022-12-10T09:31:06;-0.20;99.90
25811;DHT22;13645;52.460;13.910;2022-12-10T09:33:42;-0.20;99.90
25811;DHT22;13645;52.460;13.910;2022-12-10T09:36:11;-0.20;99.90
25811;DHT22;13645;52.460;13.910;2022-12-10T09:38:40;-0.10;99.90
25811;DHT22;13645;52.460;13.910;2022-12-10T09:43:48;-0.10;99.90
25811;DHT22;13645;52.460;13.910;2022-12-10T09:49:17;-0.10;99.90
25811;DHT22;13645;52.460;13.910;2022-12-10T09:51:46;-0.10;99.90
25811;DHT22;13645;52.460;13.910;2022-12-10T09:56:43;-0.10;99.90
25811;DHT22;13645;52.460;13.910;2022-12-10T10:01:51;-0.10;99.90
25811;DHT22;13645;52.460;13.910;2022-12-10T10:04:24;-0.10;99.90
25811;DHT22;13645;52.460;13.910;2022-12-10T10:06:51;-0.10;99.90
25811;DHT22;13645;52.460;13.910;2022-12-10T10:09:19;-0.10;99.90
25811;DHT22;13645;52.460;13.910;2022-12-10T10:11:46;-0.10;99.90
25811;DHT22;13645;52.460;13.910;2022-12-10T10:14:19;-0.10;99.90
25811;DHT22;13645;52.460;13.910;2022-12-10T10:16:51;0.00;99.90
25811;DHT22;13645;52.460;13.910;2022-12-10T10:19:33;0.00;99.90
25811;DHT22;13645;52.460;13.910;2022-12-10T10:22:01;0.00;99.90
25811;DHT22;13645;52.460;13.910;2022-12-10T10:24:40;0.00;99.90
25811;DHT22;13645;52.460;13.910;2022-12-10T10:27:15;0.10;99.90
25811;DHT22;13645;52.460;13.910;2022-12-10T10:29:44;0.00;99.90
25811;DHT22;13645;52.460;13.910;2022-12-10T10:34:43;0.00;99.90
25811;DHT22;13645;52.460;13.910;2022-12-10T10:37:23;0.00;99.90
25811;DHT22;13645;52.460;13.910;2022-12-10T10:39:52;0.00;99.90
25811;DHT22;13645;52.460;13.910;2022-12-10T10:42:38;0.10;99.90
25811;DHT22;13645;52.460;13.910;2022-12-10T10:48:18;0.00;99.90
25811;DHT22;13645;52.460;13.910;2022-12-10T10:50:50;0.10;99.90
25811;DHT22;13645;52.460;13.910;2022-12-10T10:58:35;0.20;99.90
25811;DHT22;13645;52.460;13.910;2022-12-10T11:01:07;0.10;99.90
25811;DHT22;13645;52.460;13.910;2022-12-10T11:03:35;0.10;99.90
25811;DHT22;13645;52.460;13.910;2022-12-10T11:06:06;0.10;99.90
25811;DHT22;13645;52.460;13.910;2022-12-10T11:08:37;0.10;99.90
25811;DHT22;13645;52.460;13.910;2022-12-10T11:11:24;0.10;99.90
25811;DHT22;13645;52.460;13.910;2022-12-10T11:13:52;0.10;99.90
25811;DHT22;13645;52.460;13.910;2022-12-10T11:16:21;0.10;99.90
25811;DHT22;13645;52.460;13.910;2022-12-10T11:21:22;0.20;99.90
25811;DHT22;13645;52.460;13.910;2022-12-10T11:23:53;0.20;99.90
25811;DHT22;13645;52.460;13.910;2022-12-10T11:28:57;0.20;99.90
25811;DHT22;13645;52.460;13.910;2022-12-10T11:34:19;0.30;99.90
25811;DHT22;13645;52.460;13.910;2022-12-10T11:50:37;0.30;99.90
25811;DHT22;13645;52.460;13.910;2022-12-10T12:07:04;0.40;99.90
25811;DHT22;13645;52.460;13.910;2022-12-10T12:12:52;0.30;99.90
25811;DHT22;13645;52.460;13.910;2022-12-10T12:18:26;0.20;99.90
25811;DHT22;13645;52.460;13.910;2022-12-10T12:21:04;0.10;99.90
25811;DHT22;13645;52.460;13.910;2022-12-10T12:23:56;0.10;99.90
25811;DHT22;13645;52.460;13.910;2022-12-10T12:26:39;0.10;99.90
25811;DHT22;13645;52.460;13.910;2022-12-10T12:29:13;0.10;99.90
25811;DHT22;13645;52.460;13.910;2022-12-10T12:32:32;0.00;99.90
25811;DHT22;13645;52.460;13.910;2022-12-10T12:34:54;0.10;99.90
25811;DHT22;13645;52.460;13.910;2022-12-10T12:37:35;0.00;99.90
25811;DHT22;13645;52.460;13.910;2022-12-10T12:42:38;0.00;99.90
25811;DHT22;13645;52.460;13.910;2022-12-10T12:53:17;-0.10;99.90
25811;DHT22;13645;52.460;13.910;2022-12-10T13:04:00;0.00;99.90
25811;DHT22;13645;52.460;13.910;2022-12-10T13:06:32;0.00;99.90
25811;DHT22;13645;52.460;13.910;2022-12-10T13:14:32;0.00;99.90
25811;DHT22;13645;52.460;13.910;2022-12-10T13:17:23;0.00;99.90
25811;DHT22;13645;52.460;13.910;2022-12-10T13:19:51;0.00;99.90
25811;DHT22;13645;52.460;13.910;2022-12-10T13:27:38;-0.10;99.90
25811;DHT22;13645;52.460;13.910;2022-12-10T13:30:34;0.00;99.90
25811;DHT22;13645;52.460;13.910;2022-12-10T13:33:15;-0.10;99.90
25811;DHT22;13645;52.460;13.910;2022-12-10T13:35:58;0.00;99.90
25811;DHT22;13645;52.460;13.910;2022-12-10T13:38:40;0.00;99.90
25811;DHT22;13645;52.460;13.910;2022-12-10T13:41:07;0.00;99.90
25811;DHT22;13645;52.460;13.910;2022-12-10T13:43:59;0.00;99.90
25811;DHT22;13645;52.460;13.910;2022-12-10T13:46:55;0.00;99.90
25811;DHT22;13645;52.460;13.910;2022-12-10T13:49:24;0.00;99.90
25811;DHT22;13645;52.460;13.910;2022-12-10T13:51:58;-0.10;99.90
25811;DHT22;13645;52.460;13.910;2022-12-10T14:00:14;-0.10;99.90
25811;DHT22;13645;52.460;13.910;2022-12-10T14:08:38;-0.10;99.90
25811;DHT22;13645;52.460;13.910;2022-12-10T14:11:14;-0.10;99.90
25811;DHT22;13645;52.460;13.910;2022-12-10T14:13:47;-0.10;99.90
25811;DHT22;13645;52.460;13.910;2022-12-10T14:16:20;-0.10;99.90
25811;DHT22;13645;52.460;13.910;2022-12-10T14:18:54;-0.10;99.90
25811;DHT22;13645;52.460;13.910;2022-12-10T14:21:22;-0.20;99.90
25811;DHT22;13645;52.460;13.910;2022-12-10T14:23:52;-0.20;99.90
25811;DHT22;13645;52.460;13.910;2022-12-10T14:28:56;-0.20;99.90
25811;DHT22;13645;52.460;13.910;2022-12-10T14:31:32;-0.20;99.90
25811;DHT22;13645;52.460;13.910;2022-12-10T14:34:12;-0.10;99.90
25811;DHT22;13645;52.460;13.910;2022-12-10T14:36:49;-0.20;99.90
25811;DHT22;13645;52.460;13.910;2022-12-10T14:39:37;-0.20;99.90
25811;DHT22;13645;52.460;13.910;2022-12-10T14:42:05;-0.30;99.90
25811;DHT22;13645;52.460;13.910;2022-12-10T14:44:37;-0.30;99.90
25811;DHT22;13645;52.460;13.910;2022-12-10T14:47:19;-0.20;99.90
25811;DHT22;13645;52.460;13.910;2022-12-10T14:49:49;-0.30;99.90
25811;DHT22;13645;52.460;13.910;2022-12-10T14:52:20;-0.30;99.90
25811;DHT22;13645;52.460;13.910;2022-12-10T14:54:48;-0.30;99.90
25811;DHT22;13645;52.460;13.910;2022-12-10T14:57:22;-0.30;99.90
25811;DHT22;13645;52.460;13.910;2022-12-10T15:00:06;-0.30;99.90
25811;DHT22;13645;52.460;13.910;2022-12-10T15:02:38;-0.30;99.90
25811;DHT22;13645;52.460;13.910;2022-12-10T15:05:18;-0.30;99.90
25811;DHT22;13645;52.460;13.910;2022-12-10T15:10:40;-0.30;99.90
25811;DHT22;13645;52.460;13.910;2022-12-10T15:13:21;-0.30;99.90
25811;DHT22;13645;52.460;13.910;2022-12-10T15:15:49;-0.30;99.90
25811;DHT22;13645;52.460;13.910;2022-12-10T15:18:20;-0.30;99.90
25811;DHT22;13645;52.460;13.910;2022-12-10T15:20:51;-0.30;99.90
25811;DHT22;13645;52.460;13.910;2022-12-10T15:23:31;-0.40;99.90
25811;DHT22;13645;52.460;13.910;2022-12-10T15:26:10;-0.40;99.90
25811;DHT22;13645;52.460;13.910;2022-12-10T15:28:41;-0.40;99.90
25811;DHT22;13645;52.460;13.910;2022-12-10T15:34:07;-0.40;99.90
25811;DHT22;13645;52.460;13.910;2022-12-10T15:36:48;-0.40;99.90
25811;DHT22;13645;52.460;13.910;2022-12-10T15:39:19;-0.40;99.90
25811;DHT22;13645;52.460;13.910;2022-12-10T15:41:49;-0.40;99.90
25811;DHT22;13645;52.460;13.910;2022-12-10T15:44:18;-0.40;99.90
25811;DHT22;13645;52.460;13.910;2022-12-10T15:49:30;-0.40;99.90
25811;DHT22;13645;52.460;13.910;2022-12-10T15:51:57;-0.50;99.90
25811;DHT22;13645;52.460;13.910;2022-12-10T15:54:34;-0.50;99.90
25811;DHT22;13645;52.460;13.910;2022-12-10T15:57:19;-0.50;99.90
25811;DHT22;13645;52.460;13.910;2022-12-10T15:59:48;-0.50;99.90
25811;DHT22;13645;52.460;13.910;2022-12-10T16:07:37;-0.50;99.90
25811;DHT22;13645;52.460;13.910;2022-12-10T16:10:04;-0.50;99.90
25811;DHT22;13645;52.460;13.910;2022-12-10T16:12:31;-0.50;99.90
25811;DHT22;13645;52.460;13.910;2022-12-10T16:15:10;-0.50;99.90
25811;DHT22;13645;52.460;13.910;2022-12-10T16:17:37;-0.50;99.90
25811;DHT22;13645;52.460;13.910;2022-12-10T16:20:26;-0.50;99.90
25811;DHT22;13645;52.460;13.910;2022-12-10T16:22:55;-0.50;99.90
25811;DHT22;13645;52.460;13.910;2022-12-10T16:25:23;-0.50;99.90
25811;DHT22;13645;52.460;13.910;2022-12-10T16:27:51;-0.50;99.90
25811;DHT22;13645;52.460;13.910;2022-12-10T16:32:45;-0.50;99.90
25811;DHT22;13645;52.460;13.910;2022-12-10T16:35:12;-0.50;99.90
25811;DHT22;13645;52.460;13.910;2022-12-10T16:37:45;-0.50;99.90
25811;DHT22;13645;52.460;13.910;2022-12-10T16:40:13;-0.50;99.90
25811;DHT22;13645;52.460;13.910;2022-12-10T16:42:40;-0.50;99.90
25811;DHT22;13645;52.460;13.910;2022-12-10T16:45:15;-0.50;99.90
25811;DHT22;13645;52.460;13.910;2022-12-10T16:47:43;-0.50;99.90
25811;DHT22;13645;52.460;13.910;2022-12-10T16:50:10;-0.60;99.90
25811;DHT22;13645;52.460;13.910;2022-12-10T16:52:38;-0.50;99.90
25811;DHT22;13645;52.460;13.910;2022-12-10T16:55:06;-0.50;99.90
25811;DHT22;13645;52.460;13.910;2022-12-10T16:57:37;-0.50;99.90
25811;DHT22;13645;52.460;13.910;2022-12-10T17:00:07;-0.50;99.90
25811;DHT22;13645;52.460;13.910;2022-12-10T17:02:35;-0.50;99.90
25811;DHT22;13645;52.460;13.910;2022-12-10T17:05:02;-0.50;99.90
25811;DHT22;13645;52.460;13.910;2022-12-10T17:07:29;-0.60;99.90
25811;DHT22;13645;52.460;13.910;2022-12-10T17:09:56;-0.50;99.90
25811;DHT22;13645;52.460;13.910;2022-12-10T17:12:27;-0.50;99.90
25811;DHT22;13645;52.460;13.910;2022-12-10T17:14:56;-0.50;99.90
25811;DHT22;13645;52.460;13.910;2022-12-10T17:17:23;-0.50;99.90
25811;DHT22;13645;52.460;13.910;2022-12-10T17:19:50;-0.50;99.90
25811;DHT22;13645;52.460;13.910;2022-12-10T17:22:16;-0.50;99.90
25811;DHT22;13645;52.460;13.910;2022-12-10T17:24:43;-0.50;99.90
25811;DHT22;13645;52.460;13.910;2022-12-10T17:27:16;-0.50;99.90
25811;DHT22;13645;52.460;13.910;2022-12-10T17:29:44;-0.50;99.90
25811;DHT22;13645;52.460;13.910;2022-12-10T17:32:21;-0.50;99.90
25811;DHT22;13645;52.460;13.910;2022-12-10T17:34:48;-0.50;99.90
25811;DHT22;13645;52.460;13.910;2022-12-10T17:37:17;-0.50;99.90
25811;DHT22;13645;52.460;13.910;2022-12-10T17:39:45;-0.50;99.90
25811;DHT22;13645;52.460;13.910;2022-12-10T17:42:11;-0.50;99.90
25811;DHT22;13645;52.460;13.910;2022-12-10T17:44:38;-0.50;99.90
25811;DHT22;13645;52.460;13.910;2022-12-10T17:47:34;-0.50;99.90
25811;DHT22;13645;52.460;13.910;2022-12-10T17:50:03;-0.50;99.90
25811;DHT22;13645;52.460;13.910;2022-12-10T17:52:31;-0.50;99.90
25811;DHT22;13645;52.460;13.910;2022-12-10T17:54:58;-0.50;99.90
25811;DHT22;13645;52.460;13.910;2022-12-10T17:57:25;-0.50;99.90